DEDAG EDMY-EDDM

Flight info

Callsign DEDAG
Flight time 0h 21m
Altitude 4000
Route VFR
Aircraft C152/L-SFG/C

Departure

Time 2026-04-17 12:23
Airport Mühldorf Airfield (EDMY)

Arrival

Time 2026-04-17 12:45
Airport Munich Airport (EDDM)
Time Latitude Longitude Altitude Speed Heading
2026-04-17 12:17 48.27982 12.50489 1334 ft 0 kts 347°
2026-04-17 12:20 48.27980 12.50471 1334 ft 9 kts 214°
2026-04-17 12:20 48.27952 12.50397 1333 ft 8 kts 260°
2026-04-17 12:20 48.27936 12.50257 1337 ft 20 kts 254°
2026-04-17 12:21 48.27917 12.50098 1337 ft 12 kts 258°
2026-04-17 12:21 48.27926 12.50025 1338 ft 4 kts 353°
2026-04-17 12:21 48.27930 12.50024 1338 ft 0 kts 352°
2026-04-17 12:22 48.27957 12.50030 1338 ft 8 kts 64°
2026-04-17 12:22 48.27992 12.50325 1334 ft 56 kts 81°
2026-04-17 12:22 48.28051 12.50982 1487 ft 66 kts 83°
2026-04-17 12:23 48.27776 12.51496 1676 ft 74 kts 171°
2026-04-17 12:23 48.27364 12.51122 1889 ft 73 kts 246°
2026-04-17 12:23 48.27257 12.50309 2059 ft 82 kts 266°
2026-04-17 12:23 48.27159 12.49457 2328 ft 84 kts 261°
2026-04-17 12:24 48.27070 12.48560 2590 ft 90 kts 265°
2026-04-17 12:24 48.27006 12.47586 2820 ft 97 kts 266°
2026-04-17 12:24 48.26952 12.46577 2966 ft 97 kts 265°
2026-04-17 12:24 48.26920 12.45576 3128 ft 95 kts 271°
2026-04-17 12:25 48.26944 12.44630 3393 ft 91 kts 265°
2026-04-17 12:25 48.26903 12.43639 3524 ft 98 kts 271°
2026-04-17 12:25 48.26869 12.42611 3607 ft 102 kts 262°
2026-04-17 12:25 48.26798 12.41563 3702 ft 101 kts 267°
2026-04-17 12:26 48.26739 12.40531 3752 ft 97 kts 266°
2026-04-17 12:26 48.26662 12.39541 3815 ft 95 kts 264°
2026-04-17 12:26 48.26613 12.38557 3933 ft 95 kts 265°
2026-04-17 12:26 48.26575 12.37567 3993 ft 98 kts 263°
2026-04-17 12:27 48.26483 12.36516 4095 ft 106 kts 263°
2026-04-17 12:27 48.26253 12.35380 4011 ft 114 kts 251°
2026-04-17 12:27 48.26037 12.34432 4107 ft 106 kts 248°
2026-04-17 12:27 48.25772 12.33389 4275 ft 105 kts 251°
2026-04-17 12:28 48.25587 12.32292 4195 ft 110 kts 258°
2026-04-17 12:28 48.25534 12.31139 4121 ft 114 kts 270°
2026-04-17 12:28 48.25521 12.29943 4100 ft 117 kts 269°
2026-04-17 12:28 48.25497 12.28729 3978 ft 116 kts 269°
2026-04-17 12:29 48.25497 12.27553 3906 ft 111 kts 271°
2026-04-17 12:29 48.25515 12.26416 3935 ft 107 kts 272°
2026-04-17 12:29 48.25557 12.25267 3932 ft 116 kts 275°
2026-04-17 12:29 48.25617 12.24047 3894 ft 115 kts 276°
2026-04-17 12:30 48.25634 12.22852 3882 ft 115 kts 270°
2026-04-17 12:30 48.25645 12.21647 3823 ft 118 kts 278°
2026-04-17 12:30 48.25815 12.20502 3832 ft 111 kts 288°
2026-04-17 12:30 48.25920 12.19353 3747 ft 117 kts 269°
2026-04-17 12:31 48.25869 12.18131 3768 ft 115 kts 264°
2026-04-17 12:31 48.25785 12.16917 3640 ft 118 kts 263°
2026-04-17 12:31 48.25662 12.15754 3794 ft 110 kts 260°
2026-04-17 12:31 48.25565 12.14618 3856 ft 106 kts 264°
2026-04-17 12:32 48.25461 12.13520 3935 ft 110 kts 257°
2026-04-17 12:32 48.25317 12.12376 4017 ft 115 kts 267°
2026-04-17 12:32 48.25216 12.11173 3944 ft 118 kts 258°
2026-04-17 12:32 48.25055 12.09940 3985 ft 119 kts 264°
2026-04-17 12:33 48.24932 12.08706 4014 ft 120 kts 262°
2026-04-17 12:33 48.24816 12.07466 4174 ft 118 kts 262°
2026-04-17 12:33 48.24712 12.06233 4043 ft 119 kts 264°
2026-04-17 12:33 48.24652 12.05038 4002 ft 114 kts 267°
2026-04-17 12:34 48.24608 12.03842 4057 ft 113 kts 261°
2026-04-17 12:34 48.24469 12.02675 4079 ft 114 kts 268°
2026-04-17 12:34 48.24455 12.01434 4040 ft 125 kts 272°
2026-04-17 12:34 48.24503 12.00144 3998 ft 121 kts 271°
2026-04-17 12:35 48.24473 11.98899 3888 ft 117 kts 269°
2026-04-17 12:35 48.24457 11.97672 3880 ft 116 kts 272°
2026-04-17 12:35 48.24438 11.96470 3879 ft 116 kts 268°
2026-04-17 12:35 48.24362 11.95254 3761 ft 118 kts 261°
2026-04-17 12:37 48.23882 11.86584 3488 ft 117 kts 263°
2026-04-17 12:37 48.23783 11.85396 3532 ft 114 kts 261°
2026-04-17 12:38 48.23681 11.84230 3521 ft 113 kts 268°
2026-04-17 12:38 48.23673 11.83039 3529 ft 114 kts 271°
2026-04-17 12:38 48.23711 11.81857 3685 ft 112 kts 271°
2026-04-17 12:38 48.23689 11.80662 3644 ft 119 kts 271°
2026-04-17 12:39 48.23919 11.79518 3572 ft 114 kts 313°
2026-04-17 12:39 48.24585 11.79129 3467 ft 104 kts
2026-04-17 12:39 48.25306 11.79218 3399 ft 103 kts
2026-04-17 12:39 48.25771 11.79255 3381 ft 100 kts
2026-04-17 12:40 48.26475 11.79201 3357 ft 105 kts
2026-04-17 12:40 48.27446 11.79046 3388 ft 104 kts 338°
2026-04-17 12:40 48.28021 11.78324 3472 ft 108 kts 320°
2026-04-17 12:40 48.28380 11.77803 3441 ft 105 kts 322°
2026-04-17 12:41 48.28874 11.77036 3394 ft 100 kts 315°
2026-04-17 12:41 48.29309 11.76241 3183 ft 95 kts 312°
2026-04-17 12:41 48.29703 11.75498 3044 ft 88 kts 311°
2026-04-17 12:41 48.30107 11.74880 2989 ft 82 kts 312°
2026-04-17 12:42 48.30456 11.74179 2909 ft 86 kts 310°
2026-04-17 12:42 48.30837 11.73506 2805 ft 84 kts 323°
2026-04-17 12:42 48.31319 11.73029 2675 ft 80 kts 341°
2026-04-17 12:42 48.31843 11.72803 2613 ft 77 kts 356°
2026-04-17 12:43 48.32369 11.72744 2499 ft 72 kts
2026-04-17 12:43 48.32838 11.72751 2327 ft 64 kts
2026-04-17 12:43 48.33271 11.72822 2214 ft 62 kts 13°
2026-04-17 12:43 48.33681 11.73058 2029 ft 61 kts 38°
2026-04-17 12:44 48.33918 11.73572 1828 ft 58 kts 66°
2026-04-17 12:44 48.33983 11.74147 1718 ft 55 kts 80°
2026-04-17 12:44 48.34034 11.74727 1599 ft 56 kts 79°
2026-04-17 12:44 48.34081 11.75287 1506 ft 53 kts 80°
2026-04-17 12:45 48.34121 11.75793 1469 ft 44 kts 79°
2026-04-17 12:45 48.34152 11.76210 1463 ft 38 kts 82°
2026-04-17 12:45 48.34183 11.76615 1463 ft 40 kts 84°
2026-04-17 12:45 48.34214 11.77014 1464 ft 40 kts 83°
2026-04-17 12:46 48.34248 11.77457 1463 ft 45 kts 82°
2026-04-17 12:46 48.34284 11.77912 1463 ft 40 kts 82°
2026-04-17 12:46 48.34313 11.78304 1463 ft 40 kts 83°
2026-04-17 12:46 48.34342 11.78672 1462 ft 33 kts 82°
2026-04-17 12:47 48.34371 11.79004 1458 ft 25 kts 75°
2026-04-17 12:47 48.34461 11.79202 1456 ft 20 kts 54°
2026-04-17 12:47 48.34534 11.79352 1458 ft 15 kts 51°
2026-04-17 12:47 48.34591 11.79464 1459 ft 12 kts 55°
2026-04-17 12:48 48.34634 11.79551 1460 ft 9 kts 52°
2026-04-17 12:48 48.34684 11.79652 1461 ft 14 kts 54°
2026-04-17 12:48 48.34725 11.79717 1461 ft 8 kts
2026-04-17 12:48 48.34775 11.79709 1461 ft 6 kts 352°
2026-04-17 12:49 48.34819 11.79700 1461 ft 7 kts 354°
2026-04-17 12:49 48.34902 11.79686 1461 ft 13 kts 354°
2026-04-17 12:49 48.34987 11.79672 1461 ft 11 kts 351°
2026-04-17 12:49 48.35048 11.79680 1461 ft 8 kts 43°
2026-04-17 12:50 48.35065 11.79768 1461 ft 9 kts 82°
2026-04-17 12:50 48.35072 11.79856 1461 ft 9 kts 84°
2026-04-17 12:50 48.35080 11.79966 1461 ft 10 kts 83°
2026-04-17 12:50 48.35090 11.80095 1461 ft 14 kts 83°
2026-04-17 12:51 48.35104 11.80214 1461 ft 9 kts 51°
2026-04-17 12:51 48.35157 11.80231 1461 ft 8 kts 353°
2026-04-17 12:51 48.35240 11.80217 1461 ft 13 kts 354°
2026-04-17 12:51 48.35338 11.80199 1461 ft 14 kts 354°
2026-04-17 12:52 48.35411 11.80206 1461 ft 7 kts 71°
2026-04-17 12:52 48.35416 11.80280 1461 ft 8 kts 79°
2026-04-17 12:52 48.35424 11.80370 1461 ft 8 kts 81°
2026-04-17 12:52 48.35414 11.80420 1461 ft 4 kts 148°
2026-04-17 12:53 48.35399 11.80404 1461 ft 3 kts 264°
2026-04-17 12:53 48.35396 11.80369 1461 ft 1 kts 262°
2026-04-17 12:53 48.35396 11.80362 1461 ft 0 kts 267°